• Join FlightAware (Why Join?)
  • Login
  • US Flag 
10:17PM EDT


 

Airport Tracker/Info


-or-


 

Live Flight TrackerFlight Track Log ✈ SWA3685 ✈ 03-May-2013 ✈ KMDW - KBOS

Flight Track Log - Related Links

Times and Time Zones

All times are in EDT time to prevent confusion due to time zone crossing. See the SWA3685 flight status page for this flight to view local times or setup timezone preferences in your user account.

Time Position Orientation Groundspeed Altitude Reporting Facility
EDT Latitude Longitude Course Direction KTS MPH feet Rate Location/Type
02:34PM 41.8333 -87.7500 82° East 219 252 2,500  Level Chicago TRACON
02:35PM 41.8333 -87.6667 90° East 228 262 4,300 2,460 Climbing Chicago TRACON
02:36PM 41.8500 -87.5667 77° East 255 293 7,500 3,000 Climbing Chicago TRACON
02:37PM 41.8531 -87.4881 87° East 268 308 10,100 3,000 Climbing Chicago Center
02:38PM 41.8272 -87.3861 109° East 283 326 13,400 2,820 Climbing Chicago Center
02:39PM 41.8649 -87.0003 82° East  Level Estimated
02:39PM 41.8056 -87.2731 104° East 309 356 16,000  Level Chicago Center
02:40PM 41.7797 -87.1494 106° East 340 391 18,400 2,280 Climbing Chicago Center
02:41PM 41.7581 -87.0183 102° East 360 414 20,800 2,700 Climbing Chicago Center
02:42PM 41.7625 -86.8494 88° East 378 435 24,000 2,880 Climbing Chicago Center
02:43PM 41.7653 -86.7103 88° East 376 433 26,800 1,980 Climbing Chicago Center
02:44PM 41.7744 -86.5806 85° East 383 441 28,200 1,260 Climbing Chicago Center
02:45PM 41.7989 -86.4011 80° East 407 468 29,500 1,200 Climbing Chicago Center
02:46PM 41.8186 -86.2394 81° East 435 501 30,700 1,320 Climbing Chicago Center
02:47PM 41.8403 -86.0725 80° East 451 519 32,300 1,380 Climbing Chicago Center
02:48PM 41.8633 -85.9061 79° East 453 521 33,600 1,320 Climbing Chicago Center
02:49PM 41.8831 -85.7347 81° East 459 528 35,100 1,380 Climbing Chicago Center
02:50PM 41.9036 -85.5622 81° East 463 533 36,500 1,200 Climbing Chicago Center
02:51PM 41.9256 -85.3903 80° East 463 533 37,600 1,200 Climbing Chicago Center
02:52PM 41.9475 -85.2164 80° East 469 540 39,000 720 Climbing Chicago Center
02:53PM 41.9708 -85.0494 79° East 459 528 39,000  Level Cleveland Center
02:54PM 41.9856 -84.8883 83° East 453 521 39,000  Level Cleveland Center
02:55PM 42.0061 -84.7250 80° East 448 516 39,000  Level Cleveland Center
02:56PM 42.0244 -84.5583 82° East 441 507 39,000  Level Cleveland Center
02:57PM 42.0406 -84.3942 82° East 441 507 39,000  Level Cleveland Center
02:58PM 42.0561 -84.2358 82° East 441 507 39,000  Level Cleveland Center
02:59PM 42.0733 -84.0856 81° East 441 507 39,000  Level Cleveland Center
03:00PM 42.0906 -83.9214 82° East 441 507 39,000  Level Cleveland Center
03:01PM 42.1056 -83.7600 83° East 441 507 39,000  Level Cleveland Center
03:02PM 42.1206 -83.5956 83° East 441 507 39,000  Level Cleveland Center
03:03PM 42.1419 -83.4117 81° East 446 513 39,000  Level Cleveland Center
03:04PM 42.1606 -83.2444 81° East 446 513 39,000  Level Cleveland Center
03:05PM 42.1744 -83.0908 83° East 446 513 39,000  Level Cleveland Center
03:06PM 42.1903 -82.9261 83° East 446 513 39,000  Level Cleveland Center
03:07PM 42.2061 -82.7556 83° East 446 513 39,000  Level Cleveland Center
03:08PM 42.2217 -82.5908 83° East 446 513 39,000  Level Cleveland Center
03:09PM 42.2411 -82.4286 81° East 446 513 39,000  Level Cleveland Center
03:10PM 42.2561 -82.2636 83° East 446 513 39,000  Level Cleveland Center
03:11PM 42.2711 -82.0789 84° East 446 513 39,000  Level Cleveland Center
03:12PM 42.2878 -81.9164 82° East 438 504 39,000  Level Cleveland Center
03:13PM 42.3022 -81.7511 83° East 441 507 39,000  Level Cleveland Center
03:14PM 42.3161 -81.5856 83° East 445 512 39,000  Level Cleveland Center
03:15PM 42.3300 -81.4200 83° East 445 512 39,000  Level Cleveland Center
03:16PM 42.3436 -81.2517 84° East 445 512 39,000  Level Cleveland Center
03:17PM 42.3569 -81.0833 84° East 445 512 39,000  Level Cleveland Center
03:18PM 42.3700 -80.9344 83° East 445 512 39,000  Level Cleveland Center
03:19PM 42.3831 -80.7658 84° East 448 516 39,000  Level Cleveland Center
03:20PM 42.3978 -80.6000 83° East 448 516 39,000  Level Cleveland Center
03:21PM 42.4100 -80.4286 84° East 448 516 39,000  Level Cleveland Center
03:22PM 42.4203 -80.2597 85° East 448 516 39,000  Level Cleveland Center
03:23PM 42.4342 -80.0797 84° East 443 510 39,000  Level Cleveland Center
03:24PM 42.4478 -79.9108 84° East 448 516 39,000  Level Cleveland Center
03:25PM 42.4592 -79.7472 85° East 443 510 39,000  Level Cleveland Center
03:26PM 42.4747 -79.5783 83° East 443 510 39,000  Level Cleveland Center
03:27PM 42.4836 -79.4147 86° East 443 510 39,000  Level Cleveland Center
03:28PM 42.4942 -79.2514 85° East 443 510 39,000  Level Cleveland Center
03:29PM 42.5067 -79.0847 84° East 443 510 39,000  Level Cleveland Center
03:30PM 42.5150 -78.9214 86° East 443 510 39,000  Level Cleveland Center
03:31PM 42.5269 -78.7575 84° East 443 510 39,000  Level Cleveland Center
03:32PM 42.5389 -78.5936 84° East 443 510 39,000  Level Cleveland Center
03:33PM 42.5483 -78.4272 86° East 443 510 39,000  Level Cleveland Center
03:34PM 42.5578 -78.2633 85° East 443 510 39,000  Level Cleveland Center
03:35PM 42.5689 -78.0967 85° East 443 510 39,000  Level Cleveland Center
03:36PM 42.5778 -77.9325 86° East 443 510 39,000  Level Cleveland Center
03:37PM 42.5883 -77.7631 85° East 449 517 39,000  Level Cleveland Center
03:40PM 42.6178 -77.2403 85° East 480 552 39,000  Level Boston Center
03:41PM 42.6250 -77.0686 87° East 474 545 39,000  Level Boston Center
03:42PM 42.6339 -76.8969 86° East 474 545 39,000  Level Boston Center
03:43PM 42.6428 -76.7253 86° East 474 545 39,000  Level Boston Center
03:44PM 42.6519 -76.5903 85° East 474 545 39,000  Level Boston Center
03:45PM 42.6594 -76.3792 87° East 469 540 39,000  Level Boston Center
03:46PM 42.6672 -76.2100 86° East 458 527 39,000  Level Boston Center
03:47PM 42.6747 -76.0383 87° East 458 527 39,000  Level Boston Center
03:48PM 42.6822 -75.8664 87° East 453 521 39,000  Level Boston Center
03:49PM 42.6894 -75.6944 87° East 453 521 39,000 -360 Level Boston Center
03:50PM 42.6964 -75.5194 87° East 459 528 38,300 -900 Descending Boston Center
03:51PM 42.7028 -75.3503 87° East 454 522 37,300 -660 Descending Boston Center
03:52PM 42.7072 -75.1781 88° East 454 522 37,000 -180 Descending Boston Center
03:53PM 42.7131 -75.0200 87° East 462 532 37,000  Level Boston Center
03:54PM 42.7203 -74.7772 88° East 462 532 37,000  Level Boston Center
03:55PM 42.7258 -74.6022 87° East 457 526 37,000  Level Boston Center
03:56PM 42.7186 -74.4267 93° East 457 526 37,000  Level Boston Center
03:57PM 42.7047 -74.2539 96° East 457 526 37,000  Level Boston Center
03:58PM 42.6928 -74.0786 95° East 462 532 37,000  Level Boston Center
03:59PM 42.6828 -73.9031 94° East 462 532 37,000  Level Boston Center
04:00PM 42.6703 -73.7306 96° East 462 532 37,000  Level Boston Center
04:01PM 42.6617 -73.5639 94° East 456 525 37,000  Level Boston Center
04:02PM 42.6506 -73.3914 95° East 456 525 37,000  Level Boston Center
04:03PM 42.6394 -73.2219 95° East 456 525 37,000 -1,080 Level Boston Center
04:04PM 42.6300 -73.0664 95° East 461 531 34,900 -2,940 Descending Boston Center
04:05PM 42.6122 -72.8858 98° East 468 539 31,200 -3,360 Descending Boston Center
04:06PM 42.6003 -72.7081 95° East 479 551 28,200 -2,820 Descending Boston Center
04:07PM 42.5858 -72.5500 97° East 456 525 25,600 -2,400 Descending Boston Center
04:08PM 42.5733 -72.4006 96° East 425 489 23,400 -2,160 Descending Boston Center
04:09PM 42.5628 -72.2597 96° East 399 459 21,300 -2,100 Descending Boston Center
04:10PM 42.5519 -72.1161 96° East 377 434 19,200 -2,100 Descending Boston Center
04:11PM 42.5369 -71.9667 98° East 366 421 17,100 -2,100 Descending Boston Center
04:12PM 42.5258 -71.8344 96° East 366 421 15,000 -2,400 Descending Boston Center
04:13PM 42.5125 -71.7050 98° East 356 410 12,400 -2,100 Descending Boston Center
04:14PM 42.5014 -71.5783 97° East 346 398 10,900 -720 Descending Boston Center
04:15PM 42.4900 -71.4603 97° East 323 372 11,000  Climbing Boston Center
04:16PM 42.4833 -71.4167 102° East 318 366 10,900 -780 Descending KA90
04:17PM 42.4833 -71.3000 90° East 278 320 9,900 -1,080 Descending KA90
04:18PM 42.4667 -71.1833 101° East 270 311 8,600 -1,080 Descending KA90
04:19PM 42.4500 -71.1000 105° East 236 272 7,700 -840 Descending KA90
04:20PM 42.4333 -71.0167 105° East 222 255 7,000 -900 Descending KA90
04:21PM 42.3833 -70.9833 154° Southeast 230 265 6,000 -540 Descending KA90
04:22PM 42.3333 -70.9500 154° Southeast 226 260 6,000  Level KA90
04:23PM 42.2667 -70.9500 180° South 232 267 6,000 -540 Level KA90
04:24PM 42.2167 -70.9833 206° Southwest 220 253 5,000 -1,020 Descending KA90
04:25PM 42.1667 -71.0000 194° South 216 249 4,100 -540 Descending KA90
04:26PM 42.1000 -71.0333 200° South 213 245 4,000 -60 Descending KA90
04:27PM 42.0667 -71.0833 228° Southwest 221 254 4,000  Level KA90
04:28PM 42.1167 -71.1167 334° Northwest 196 226 4,000 -300 Level KA90
04:29PM 42.1667 -71.1000 14° North 179 206 3,500 -600 Descending KA90
04:30PM 42.2000 -71.0833 20° North 164 189 2,800 -720 Descending KA90
04:31PM 42.2500 -71.0667 14° North 157 181 2,200 -600 Descending KA90
04:32PM 42.2833 -71.0500 20° North 136 157 1,600 -600 Descending KA90
04:33PM 42.3167 -71.0333 20° North 121 139 1,000 -720 Descending KA90